Time;durP1;ratioP1;P1;durP2;ratioP2;P2;SDS_P1;SDS_P2;PMS_P1;PMS_P2;Temp;Humidity;BMP_temperature;BMP_pressure;BME280_temperature;BME280_humidity;BME280_pressure;Samples;Min_cycle;Max_cycle;Signal;HPM_P1;HPM_P2
2023/09/28 00:01:59;;;;;;;41.30;37.80;;;24.30;99.90;;;;;;5065529;28;20105;-60
2023/09/28 00:04:25;;;;;;;39.67;35.85;;;24.40;99.90;;;;;;5067171;28;20044;-61
2023/09/28 00:06:50;;;;;;;37.95;34.30;;;24.50;99.90;;;;;;5067169;28;20040;-60
2023/09/28 00:09:16;;;;;;;37.20;34.00;;;24.20;99.90;;;;;;5067278;28;20149;-61
2023/09/28 00:11:42;;;;;;;36.70;33.60;;;24.70;99.90;;;;;;5067482;28;20527;-61
2023/09/28 00:14:08;;;;;;;36.33;33.08;;;25.10;99.90;;;;;;5067818;28;20052;-62
2023/09/28 00:16:33;;;;;;;36.83;33.17;;;24.50;99.90;;;;;;5067242;28;20040;-59
2023/09/28 00:18:59;;;;;;;33.90;31.05;;;24.70;99.90;;;;;;5067285;28;20052;-61
2023/09/28 00:21:25;;;;;;;34.67;31.45;;;24.60;99.90;;;;;;5067008;28;20074;-60
2023/09/28 00:23:52;;;;;;;34.45;31.65;;;24.40;99.90;;;;;;5066849;28;20069;-60
2023/09/28 00:26:19;;;;;;;33.83;30.92;;;24.60;99.90;;;;;;5066903;28;20044;-61
2023/09/28 00:28:44;;;;;;;34.50;31.60;;;24.50;99.90;;;;;;5066860;28;20080;-60
2023/09/28 00:31:10;;;;;;;33.70;30.90;;;24.30;99.90;;;;;;5066798;28;20138;-60
2023/09/28 00:33:35;;;;;;;34.33;30.75;;;24.70;99.90;;;;;;5067159;28;20050;-60
2023/09/28 00:36:01;;;;;;;32.90;29.80;;;24.70;99.90;;;;;;5066692;28;20460;-61
2023/09/28 00:38:27;;;;;;;33.88;30.88;;;24.40;99.90;;;;;;5066910;28;20051;-63
2023/09/28 00:40:52;;;;;;;35.03;31.58;;;24.10;99.90;;;;;;5066518;28;20534;-63
2023/09/28 00:43:25;;;;;;;33.75;30.95;;;24.20;99.90;;;;;;5067110;28;20607;-63
2023/09/28 00:45:51;;;;;;;33.58;30.77;;;24.40;99.90;;;;;;5066613;28;20040;-63
2023/09/28 00:48:17;;;;;;;34.08;31.10;;;24.10;99.90;;;;;;5070547;28;20067;-63
2023/09/28 00:50:42;;;;;;;35.15;32.05;;;24.40;99.90;;;;;;5070235;28;20131;-63
2023/09/28 00:53:08;;;;;;;33.83;30.88;;;24.30;99.90;;;;;;5070808;28;20037;-63
2023/09/28 00:55:36;;;;;;;33.72;30.83;;;24.40;99.90;;;;;;5069458;28;20044;-63
2023/09/28 00:58:05;;;;;;;33.67;30.88;;;24.40;99.90;;;;;;5070955;28;20095;-63
2023/09/28 01:00:34;;;;;;;33.92;30.90;;;24.30;99.90;;;;;;5070124;28;20131;-63
2023/09/28 01:03:02;;;;;;;33.50;30.75;;;24.40;99.90;;;;;;5068133;28;20040;-63
2023/09/28 01:05:33;;;;;;;34.15;31.25;;;24.30;99.90;;;;;;5055715;28;20101;-63
2023/09/28 01:08:12;;;;;;;34.00;31.20;;;24.40;99.90;;;;;;5056536;28;20051;-63
2023/09/28 01:10:40;;;;;;;32.88;30.10;;;24.10;99.90;;;;;;5065104;28;20568;-64
2023/09/28 01:13:27;;;;;;;34.47;31.50;;;24.20;99.90;;;;;;5065391;28;20037;-63
2023/09/28 01:15:52;;;;;;;32.65;29.73;;;24.10;99.90;;;;;;5060965;28;20051;-63
2023/09/28 01:18:20;;;;;;;31.80;29.10;;;24.30;99.90;;;;;;5065230;28;20044;-63
2023/09/28 01:20:48;;;;;;;31.20;28.50;;;24.60;99.90;;;;;;5069858;28;20084;-63
2023/09/28 01:23:13;;;;;;;31.67;28.77;;;24.20;99.90;;;;;;5069742;28;20387;-63
2023/09/28 01:25:40;;;;;;;30.38;27.75;;;24.40;99.90;;;;;;5069523;28;20087;-63
2023/09/28 01:28:07;;;;;;;32.17;29.40;;;24.50;99.90;;;;;;5069620;28;20414;-63
2023/09/28 01:30:33;;;;;;;31.73;28.63;;;24.40;99.90;;;;;;5069366;28;20045;-63
2023/09/28 01:32:58;;;;;;;30.63;27.95;;;24.20;99.90;;;;;;5069485;28;20044;-63
2023/09/28 01:35:24;;;;;;;32.45;29.55;;;24.80;99.90;;;;;;5069497;28;20491;-63
2023/09/28 01:38:11;;;;;;;33.00;30.20;;;24.50;99.90;;;;;;5069643;28;20041;-64
2023/09/28 01:40:37;;;;;;;32.17;29.48;;;24.60;99.90;;;;;;5069836;28;20044;-63
2023/09/28 01:43:03;;;;;;;33.00;30.00;;;24.40;99.90;;;;;;5069860;28;20040;-63
2023/09/28 01:45:29;;;;;;;33.15;30.25;;;24.20;99.90;;;;;;5065651;28;20517;-63
2023/09/28 01:47:54;;;;;;;34.17;31.08;;;24.50;99.90;;;;;;5049430;28;20041;-63
2023/09/28 01:50:20;;;;;;;34.35;31.40;;;24.30;99.90;;;;;;5067497;28;20052;-62
2023/09/28 01:52:46;;;;;;;34.13;31.25;;;24.10;99.90;;;;;;5069017;28;20045;-61
2023/09/28 01:55:11;;;;;;;34.92;31.92;;;24.10;99.90;;;;;;5068924;28;20127;-62
2023/09/28 01:57:37;;;;;;;35.92;32.53;;;24.50;99.90;;;;;;5068413;28;20047;-62
2023/09/28 02:00:19;;;;;;;34.78;31.52;;;24.00;99.90;;;;;;5067017;28;20041;-61
2023/09/28 02:02:46;;;;;;;34.65;31.48;;;24.00;99.90;;;;;;5067682;28;20049;-62
2023/09/28 02:05:15;;;;;;;35.40;32.20;;;24.30;99.90;;;;;;5068915;28;20174;-62
2023/09/28 02:07:42;;;;;;;36.22;32.72;;;24.30;99.90;;;;;;5068743;28;20043;-62
2023/09/28 02:10:09;;;;;;;36.38;33.20;;;24.10;99.90;;;;;;5068511;28;20475;-62
2023/09/28 02:12:38;;;;;;;36.65;33.03;;;23.90;99.90;;;;;;5068526;28;20489;-62
2023/09/28 02:15:04;;;;;;;36.72;33.70;;;24.10;99.90;;;;;;5066900;28;20044;-62
2023/09/28 02:17:30;;;;;;;35.38;32.33;;;24.00;99.90;;;;;;5068550;28;20592;-61
2023/09/28 02:19:56;;;;;;;35.45;32.25;;;24.10;99.90;;;;;;5069153;28;20076;-62
2023/09/28 02:22:22;;;;;;;35.40;32.42;;;24.00;99.90;;;;;;5069161;28;20515;-61
2023/09/28 02:24:50;;;;;;;35.72;32.38;;;23.90;99.90;;;;;;5068639;28;20048;-61
2023/09/28 02:27:17;;;;;;;36.15;32.95;;;24.20;99.90;;;;;;5066898;28;20040;-62
2023/09/28 02:29:44;;;;;;;36.13;33.03;;;23.90;99.90;;;;;;5068391;28;20371;-61
2023/09/28 02:32:09;;;;;;;36.88;33.53;;;24.10;99.90;;;;;;5067122;28;20529;-61
2023/09/28 02:34:35;;;;;;;36.58;33.47;;;24.20;99.90;;;;;;5067033;28;20170;-62
2023/09/28 02:37:01;;;;;;;36.45;32.83;;;24.10;99.90;;;;;;5068066;28;20127;-61
2023/09/28 02:39:28;;;;;;;36.88;33.63;;;24.20;99.90;;;;;;5068024;28;20474;-61
2023/09/28 02:41:55;;;;;;;36.38;33.25;;;23.90;99.90;;;;;;5067892;28;20120;-61
2023/09/28 02:44:21;;;;;;;36.55;33.22;;;24.10;99.90;;;;;;5068292;28;20044;-62
2023/09/28 02:46:47;;;;;;;37.20;34.00;;;23.90;99.90;;;;;;5067941;28;20041;-62
2023/09/28 02:49:13;;;;;;;38.88;35.22;;;23.90;99.90;;;;;;5067932;28;20106;-61
2023/09/28 02:51:38;;;;;;;39.92;35.83;;;24.20;99.90;;;;;;5068044;28;20510;-61
2023/09/28 02:54:06;;;;;;;41.63;37.22;;;24.10;99.90;;;;;;5068021;28;20411;-62
2023/09/28 02:56:32;;;;;;;41.95;37.75;;;23.80;99.90;;;;;;5067861;28;20331;-61
2023/09/28 02:58:57;;;;;;;42.60;38.13;;;24.30;99.90;;;;;;5068366;28;20094;-62
2023/09/28 03:01:24;;;;;;;40.78;36.97;;;23.80;99.90;;;;;;5068173;28;20037;-60
2023/09/28 03:03:50;;;;;;;40.08;36.17;;;23.70;99.90;;;;;;5068227;28;20052;-60
2023/09/28 03:06:15;;;;;;;39.58;35.67;;;24.20;99.90;;;;;;5068035;28;20033;-60
2023/09/28 03:08:41;;;;;;;40.75;36.58;;;23.60;99.90;;;;;;5068130;28;20075;-61
2023/09/28 03:11:06;;;;;;;40.85;36.95;;;24.20;99.90;;;;;;5050884;28;20049;-60
2023/09/28 03:13:32;;;;;;;40.10;36.28;;;23.90;99.90;;;;;;5047896;28;20061;-60
2023/09/28 03:15:58;;;;;;;41.28;37.67;;;24.20;99.90;;;;;;5050135;28;20040;-61
2023/09/28 03:18:23;;;;;;;40.17;36.50;;;24.10;99.90;;;;;;5062769;28;20403;-60
2023/09/28 03:20:49;;;;;;;39.90;36.30;;;24.20;99.90;;;;;;5058606;28;20080;-61
2023/09/28 03:23:14;;;;;;;39.63;35.67;;;24.10;99.90;;;;;;5062584;28;20094;-60
2023/09/28 03:25:40;;;;;;;38.70;35.10;;;23.70;99.90;;;;;;5066832;28;20037;-60
2023/09/28 03:28:06;;;;;;;39.63;35.92;;;24.00;99.90;;;;;;5067462;28;20106;-61
2023/09/28 03:30:32;;;;;;;37.28;33.67;;;23.90;99.90;;;;;;5066124;28;20084;-60
2023/09/28 03:32:58;;;;;;;37.75;34.25;;;23.90;99.90;;;;;;5067533;28;20076;-61
2023/09/28 03:35:24;;;;;;;37.72;33.92;;;23.80;99.90;;;;;;5067735;28;20049;-60
2023/09/28 03:37:59;;;;;;;33.38;30.17;;;23.40;99.90;;;;;;5067568;28;20036;-61
2023/09/28 03:40:34;;;;;;;30.73;27.52;;;24.00;99.90;;;;;;5067551;28;20047;-62
2023/09/28 03:43:00;;;;;;;23.23;20.73;;;24.00;99.90;;;;;;5067704;28;20048;-60
2023/09/28 03:45:26;;;;;;;18.05;15.63;;;23.90;99.90;;;;;;5067243;28;20049;-61
2023/09/28 03:47:53;;;;;;;19.92;17.23;;;23.90;99.90;;;;;;5067400;28;20064;-62
2023/09/28 03:50:21;;;;;;;28.33;18.45;;;24.20;99.90;;;;;;5067447;28;20072;-60
2023/09/28 03:52:47;;;;;;;25.98;20.48;;;24.10;99.90;;;;;;5067677;28;20073;-61
2023/09/28 03:55:18;;;;;;;34.95;24.55;;;24.00;99.90;;;;;;5067262;28;20706;-59
2023/09/28 03:57:44;;;;;;;38.60;26.17;;;24.10;99.90;;;;;;5067294;28;20068;-60
2023/09/28 04:00:13;;;;;;;38.55;22.42;;;24.10;99.90;;;;;;5065468;28;20637;-60
2023/09/28 04:02:44;;;;;;;32.92;22.33;;;24.20;99.90;;;;;;5067252;28;20490;-61
2023/09/28 04:05:10;;;;;;;45.40;24.95;;;24.00;99.90;;;;;;5065734;28;20043;-61
2023/09/28 04:07:36;;;;;;;40.33;23.83;;;24.10;99.90;;;;;;5065803;28;20036;-61
2023/09/28 04:10:02;;;;;;;38.80;24.90;;;24.70;99.90;;;;;;5067121;28;20443;-61
2023/09/28 04:12:29;;;;;;;36.97;22.77;;;24.10;99.90;;;;;;5067187;28;20518;-62
2023/09/28 04:14:54;;;;;;;43.95;24.85;;;23.80;99.90;;;;;;5067152;28;20080;-63
2023/09/28 04:17:20;;;;;;;38.72;25.40;;;24.00;99.90;;;;;;5067366;28;20066;-61
2023/09/28 04:19:46;;;;;;;41.97;23.70;;;23.90;99.90;;;;;;5067307;28;20044;-62
2023/09/28 04:22:12;;;;;;;39.47;26.48;;;24.00;99.90;;;;;;5069249;28;20362;-61
2023/09/28 04:24:37;;;;;;;41.72;25.50;;;23.90;99.90;;;;;;5071100;28;20041;-62
2023/09/28 04:27:03;;;;;;;36.58;22.45;;;23.70;99.90;;;;;;5070612;28;20094;-61
2023/09/28 04:29:29;;;;;;;39.42;22.17;;;23.60;99.90;;;;;;5070884;28;20045;-61
2023/09/28 04:31:54;;;;;;;49.70;26.00;;;23.60;99.90;;;;;;5070622;28;20043;-61
2023/09/28 04:34:20;;;;;;;44.00;26.77;;;23.80;99.90;;;;;;5070709;28;20585;-62
2023/09/28 04:36:46;;;;;;;52.28;29.08;;;23.50;99.90;;;;;;5070559;28;20095;-61
2023/09/28 04:39:12;;;;;;;55.42;26.23;;;23.50;99.90;;;;;;5070857;28;20045;-61
2023/09/28 04:41:38;;;;;;;41.40;26.88;;;23.70;99.90;;;;;;5070566;28;20569;-61
2023/09/28 04:44:05;;;;;;;51.92;28.27;;;23.50;99.90;;;;;;5070891;28;20071;-61
2023/09/28 04:46:31;;;;;;;50.47;27.92;;;23.50;99.90;;;;;;5069098;28;20040;-61
2023/09/28 04:48:57;;;;;;;54.92;28.13;;;23.20;99.90;;;;;;5070251;28;20048;-61
2023/09/28 04:51:23;;;;;;;47.25;26.88;;;23.20;99.90;;;;;;5070515;28;20051;-61
2023/09/28 04:53:48;;;;;;;46.03;26.50;;;23.30;99.90;;;;;;5070451;28;20041;-61
2023/09/28 04:56:15;;;;;;;44.15;26.02;;;23.20;99.90;;;;;;5069094;28;20048;-62
2023/09/28 04:58:41;;;;;;;52.67;29.02;;;23.60;99.90;;;;;;5070247;28;20127;-61
2023/09/28 05:01:07;;;;;;;48.83;29.88;;;23.60;99.90;;;;;;5069801;28;20127;-62
2023/09/28 05:03:33;;;;;;;42.70;26.00;;;23.40;99.90;;;;;;5070060;28;20228;-61
2023/09/28 05:05:59;;;;;;;50.75;27.05;;;23.70;99.90;;;;;;5069829;28;20154;-61
2023/09/28 05:08:25;;;;;;;44.20;26.13;;;23.80;99.90;;;;;;5069856;28;20044;-61
2023/09/28 05:10:51;;;;;;;37.65;23.33;;;23.50;99.90;;;;;;5069787;28;20147;-61
2023/09/28 05:13:17;;;;;;;54.08;26.55;;;23.50;99.90;;;;;;5070223;28;20043;-62
2023/09/28 05:15:43;;;;;;;46.58;25.02;;;23.60;99.90;;;;;;5069645;28;20040;-62
2023/09/28 05:18:08;;;;;;;46.63;24.77;;;23.50;99.90;;;;;;5069829;28;20046;-61
2023/09/28 05:20:34;;;;;;;41.83;24.60;;;23.60;99.90;;;;;;5069859;28;20043;-61
2023/09/28 05:22:59;;;;;;;46.35;25.45;;;23.70;99.90;;;;;;5068275;28;20070;-61
2023/09/28 05:25:25;;;;;;;43.85;24.52;;;23.50;99.90;;;;;;5069780;28;20043;-62
2023/09/28 05:27:51;;;;;;;48.97;25.40;;;23.50;99.90;;;;;;5065375;28;20044;-61
2023/09/28 05:30:17;;;;;;;52.47;25.67;;;23.70;99.90;;;;;;5056938;28;20136;-61
2023/09/28 05:32:43;;;;;;;44.55;25.55;;;23.50;99.90;;;;;;5059443;28;20053;-61
2023/09/28 05:35:09;;;;;;;41.75;26.92;;;23.50;99.90;;;;;;5060380;28;20059;-62
2023/09/28 05:37:34;;;;;;;52.00;27.38;;;23.50;99.90;;;;;;5040480;28;20474;-62
2023/09/28 05:40:01;;;;;;;45.65;26.27;;;23.80;99.90;;;;;;5056892;28;20495;-61
2023/09/28 05:42:26;;;;;;;45.65;25.55;;;23.50;99.90;;;;;;5061813;28;20106;-61
2023/09/28 05:44:52;;;;;;;45.38;27.02;;;23.90;99.90;;;;;;5061035;28;20048;-61
2023/09/28 05:47:20;;;;;;;48.42;27.33;;;23.50;99.90;;;;;;5057146;28;20526;-61
2023/09/28 05:49:47;;;;;;;58.78;29.73;;;24.00;99.90;;;;;;5063929;28;20064;-62
2023/09/28 05:52:13;;;;;;;48.80;29.67;;;23.50;99.90;;;;;;5064619;28;20040;-62
2023/09/28 05:54:38;;;;;;;51.20;29.63;;;23.60;99.90;;;;;;5067442;28;20044;-61
2023/09/28 05:57:04;;;;;;;51.38;30.63;;;23.40;99.90;;;;;;5060392;28;20067;-61
2023/09/28 05:59:30;;;;;;;44.75;29.38;;;23.40;99.90;;;;;;5060528;28;20049;-62
2023/09/28 06:01:55;;;;;;;57.28;32.05;;;23.10;99.90;;;;;;5068753;28;20036;-61
2023/09/28 06:04:21;;;;;;;53.63;30.73;;;23.10;99.90;;;;;;5061792;28;20482;-61
2023/09/28 06:06:50;;;;;;;52.20;29.75;;;23.20;99.90;;;;;;5068687;28;20076;-62
2023/09/28 06:09:20;;;;;;;52.80;28.55;;;24.00;99.90;;;;;;5058993;28;20069;-61
2023/09/28 06:11:46;;;;;;;49.72;24.70;;;23.80;99.90;;;;;;5056409;28;20095;-61
2023/09/28 06:14:15;;;;;;;42.65;22.67;;;23.70;99.90;;;;;;5053638;28;20098;-63
2023/09/28 06:16:42;;;;;;;44.25;22.75;;;23.80;99.90;;;;;;5065113;28;20463;-61
2023/09/28 06:19:09;;;;;;;42.08;22.98;;;23.70;99.90;;;;;;5067957;28;20600;-61
2023/09/28 06:21:34;;;;;;;34.83;21.15;;;23.80;99.90;;;;;;5067966;28;20048;-61
2023/09/28 06:24:01;;;;;;;45.40;24.40;;;23.70;99.90;;;;;;5067053;28;20417;-62
2023/09/28 06:26:27;;;;;;;42.95;24.90;;;23.80;99.90;;;;;;5063645;28;20507;-61
2023/09/28 06:28:54;;;;;;;47.25;26.25;;;23.90;99.90;;;;;;5065825;28;20044;-62
2023/09/28 06:31:19;;;;;;;52.10;27.38;;;23.70;99.90;;;;;;5067473;28;20047;-61
2023/09/28 06:33:46;;;;;;;50.00;27.60;;;23.90;99.90;;;;;;5066650;28;20138;-62
2023/09/28 06:36:12;;;;;;;42.85;24.52;;;23.60;99.90;;;;;;5065596;28;20070;-60
2023/09/28 06:38:37;;;;;;;46.05;26.00;;;23.90;99.90;;;;;;5067504;28;20066;-61
2023/09/28 06:41:03;;;;;;;48.50;27.13;;;24.50;99.90;;;;;;5064877;28;20406;-60
2023/09/28 06:43:29;;;;;;;43.78;25.85;;;23.90;99.90;;;;;;5064989;28;20048;-61
2023/09/28 06:45:57;;;;;;;47.00;27.38;;;23.70;99.90;;;;;;5064446;28;20049;-60
2023/09/28 06:48:26;;;;;;;47.70;26.42;;;23.70;99.90;;;;;;5065472;28;20039;-59
2023/09/28 06:51:01;;;;;;;51.67;27.45;;;23.90;99.90;;;;;;5059015;28;20057;-61
2023/09/28 06:53:27;;;;;;;53.40;26.10;;;23.70;99.90;;;;;;5058554;28;20076;-60
2023/09/28 06:55:54;;;;;;;39.95;23.25;;;23.90;99.90;;;;;;5062688;28;20079;-60
2023/09/28 06:58:20;;;;;;;49.72;26.67;;;23.90;99.90;;;;;;5060515;28;20387;-60
2023/09/28 07:00:46;;;;;;;43.90;25.25;;;23.80;99.90;;;;;;5061856;28;20045;-60
2023/09/28 07:03:12;;;;;;;49.70;27.42;;;24.20;99.90;;;;;;5056021;28;20040;-60
2023/09/28 07:05:38;;;;;;;44.42;27.38;;;24.00;99.90;;;;;;5062727;28;20121;-60
2023/09/28 07:08:05;;;;;;;55.72;28.92;;;23.90;99.90;;;;;;5059182;28;20033;-61
2023/09/28 07:10:37;;;;;;;55.85;29.10;;;24.10;99.90;;;;;;5057717;28;20044;-61
2023/09/28 07:13:05;;;;;;;45.90;26.13;;;24.10;99.90;;;;;;5056984;28;20138;-60
2023/09/28 07:15:36;;;;;;;53.05;27.63;;;24.10;99.90;;;;;;5061397;28;20115;-61
2023/09/28 07:18:03;;;;;;;49.63;27.92;;;23.80;99.90;;;;;;5057529;28;20036;-60
2023/09/28 07:20:28;;;;;;;44.40;27.02;;;23.80;99.90;;;;;;5059161;28;20048;-61
2023/09/28 07:22:54;;;;;;;52.25;27.27;;;23.90;99.90;;;;;;5061885;28;20135;-60
2023/09/28 07:25:20;;;;;;;48.40;28.55;;;24.00;99.90;;;;;;5064228;28;20107;-60
2023/09/28 07:27:50;;;;;;;46.30;27.58;;;23.80;99.90;;;;;;5060942;28;20144;-61
2023/09/28 07:30:19;;;;;;;48.58;28.08;;;24.10;99.90;;;;;;5061189;28;20457;-61
2023/09/28 07:32:46;;;;;;;46.55;26.33;;;24.10;99.90;;;;;;5061700;28;20563;-60
2023/09/28 07:35:12;;;;;;;46.35;27.73;;;24.10;99.90;;;;;;5060908;28;20049;-61
2023/09/28 07:37:38;;;;;;;50.08;27.30;;;24.20;99.90;;;;;;5060187;28;20693;-60
2023/09/28 07:40:06;;;;;;;41.60;26.67;;;23.90;99.90;;;;;;5058246;28;20045;-61
2023/09/28 07:42:32;;;;;;;45.85;28.00;;;23.90;99.90;;;;;;5060626;28;20063;-61
2023/09/28 07:44:57;;;;;;;42.30;24.85;;;24.20;99.90;;;;;;5056904;28;20049;-61
2023/09/28 07:47:23;;;;;;;58.63;28.48;;;24.10;99.90;;;;;;5061284;28;20071;-61
2023/09/28 07:49:49;;;;;;;46.95;27.38;;;23.90;99.90;;;;;;5061221;28;20065;-62
2023/09/28 07:52:15;;;;;;;49.83;30.48;;;24.10;99.90;;;;;;5059759;28;20422;-61
2023/09/28 07:54:40;;;;;;;48.90;29.38;;;24.00;99.90;;;;;;5066616;28;20469;-61
2023/09/28 07:57:09;;;;;;;58.83;30.10;;;24.20;99.90;;;;;;5059067;28;20072;-64
2023/09/28 07:59:35;;;;;;;53.35;29.98;;;24.20;99.90;;;;;;5064661;28;20094;-62
2023/09/28 08:02:02;;;;;;;54.38;29.58;;;24.10;99.90;;;;;;5066616;28;20047;-61
2023/09/28 08:04:28;;;;;;;48.10;27.98;;;23.90;99.90;;;;;;5057941;28;20044;-62
2023/09/28 08:06:55;;;;;;;54.90;28.98;;;23.90;99.90;;;;;;5066629;28;20391;-63
2023/09/28 08:09:21;;;;;;;47.70;27.27;;;24.20;99.90;;;;;;5065989;28;20040;-61
2023/09/28 08:11:49;;;;;;;55.10;30.70;;;24.20;99.90;;;;;;5067869;28;20048;-62
2023/09/28 08:14:16;;;;;;;54.08;29.60;;;23.90;99.90;;;;;;5070330;28;20044;-61
2023/09/28 08:16:45;;;;;;;53.00;29.83;;;24.00;99.90;;;;;;5070024;28;20405;-62
2023/09/28 08:19:12;;;;;;;49.67;27.98;;;24.20;99.90;;;;;;5059352;28;20040;-64
2023/09/28 08:21:41;;;;;;;47.55;28.67;;;24.20;99.90;;;;;;5063190;28;20037;-61
2023/09/28 08:24:08;;;;;;;54.90;29.27;;;24.20;99.90;;;;;;5062390;28;20037;-62
2023/09/28 08:26:35;;;;;;;47.78;30.13;;;24.20;99.90;;;;;;5056609;28;20079;-64
2023/09/28 08:29:03;;;;;;;44.88;28.40;;;23.90;99.90;;;;;;5063491;28;20407;-62
2023/09/28 08:31:29;;;;;;;44.15;28.05;;;24.00;99.90;;;;;;5068410;28;20051;-61
2023/09/28 08:33:55;;;;;;;52.13;28.45;;;24.00;99.90;;;;;;5065860;28;20063;-63
2023/09/28 08:36:24;;;;;;;49.55;29.05;;;24.50;99.90;;;;;;5066766;28;20040;-62
2023/09/28 08:38:50;;;;;;;45.05;26.50;;;24.30;99.90;;;;;;5067430;28;20123;-62
2023/09/28 08:41:19;;;;;;;49.65;28.02;;;24.00;99.90;;;;;;5064041;28;20052;-61
2023/09/28 08:44:05;;;;;;;41.38;25.98;;;24.10;99.90;;;;;;5069999;28;20111;-62
2023/09/28 08:46:38;;;;;;;45.63;26.52;;;24.00;99.90;;;;;;5066543;28;20040;-61
2023/09/28 08:49:05;;;;;;;51.95;28.27;;;24.10;99.90;;;;;;5063317;28;20117;-61
2023/09/28 08:51:36;;;;;;;48.85;26.67;;;24.40;99.90;;;;;;5064638;28;20052;-65
2023/09/28 08:54:05;;;;;;;45.03;26.85;;;24.30;99.90;;;;;;5064820;28;20581;-67
2023/09/28 08:56:41;;;;;;;50.33;29.25;;;24.10;99.90;;;;;;5064932;28;20076;-67
2023/09/28 08:59:09;;;;;;;51.10;29.42;;;24.40;99.90;;;;;;5065845;28;20044;-66
2023/09/28 09:01:35;;;;;;;47.63;28.70;;;24.10;99.90;;;;;;5067085;28;20040;-67
2023/09/28 09:04:01;;;;;;;41.30;26.55;;;24.40;99.90;;;;;;5065065;28;20044;-67
2023/09/28 09:06:31;;;;;;;43.90;27.02;;;24.40;99.90;;;;;;5067307;28;20127;-66
2023/09/28 09:09:01;;;;;;;51.08;27.90;;;24.10;99.90;;;;;;5064134;28;20048;-66
2023/09/28 09:11:31;;;;;;;53.58;30.17;;;24.20;99.90;;;;;;5063766;28;20657;-66
2023/09/28 09:13:58;;;;;;;54.35;29.35;;;24.50;99.90;;;;;;5064568;28;20040;-65
2023/09/28 09:16:27;;;;;;;46.53;27.35;;;24.50;99.90;;;;;;5068379;28;20114;-66
2023/09/28 09:18:54;;;;;;;48.70;27.83;;;24.10;99.90;;;;;;5068474;28;20048;-66
2023/09/28 09:21:21;;;;;;;43.83;27.38;;;24.10;99.90;;;;;;5067915;28;20087;-66
2023/09/28 09:24:00;;;;;;;45.22;28.73;;;24.20;99.90;;;;;;5066915;28;20748;-66
2023/09/28 09:26:26;;;;;;;39.22;27.20;;;24.20;99.90;;;;;;5068064;28;20501;-67
2023/09/28 09:28:58;;;;;;;49.97;27.30;;;24.50;99.90;;;;;;5067461;28;20041;-66
2023/09/28 09:31:24;;;;;;;41.58;25.30;;;24.50;99.90;;;;;;5065031;28;20094;-67
2023/09/28 09:33:50;;;;;;;42.05;24.30;;;24.80;99.90;;;;;;5067057;28;20047;-67
2023/09/28 09:36:18;;;;;;;39.50;24.75;;;24.30;99.90;;;;;;5064724;28;20037;-66
2023/09/28 09:38:44;;;;;;;35.15;22.48;;;24.40;99.90;;;;;;5064480;28;20051;-67
2023/09/28 09:41:11;;;;;;;37.50;23.20;;;24.30;99.90;;;;;;5067938;28;20478;-66
2023/09/28 09:43:39;;;;;;;40.00;23.83;;;24.40;99.90;;;;;;5064530;28;20081;-66
2023/09/28 09:46:06;;;;;;;41.38;25.60;;;24.50;99.90;;;;;;5066750;28;20406;-66
2023/09/28 09:48:43;;;;;;;47.28;25.98;;;24.60;99.90;;;;;;5028735;28;1033136;-65
2023/09/28 09:51:13;;;;;;;43.38;24.80;;;24.40;99.90;;;;;;5068213;28;20040;-66
2023/09/28 09:53:43;;;;;;;41.53;25.50;;;24.60;99.90;;;;;;5064607;28;20507;-67
2023/09/28 09:56:10;;;;;;;35.05;20.40;;;24.40;99.90;;;;;;5065679;28;20036;-66
2023/09/28 09:58:42;;;;;;;34.38;21.17;;;24.40;99.90;;;;;;5067562;28;20199;-67
2023/09/28 10:01:12;;;;;;;36.00;22.63;;;24.60;99.90;;;;;;5066276;28;20037;-61
2023/09/28 10:03:50;;;;;;;38.88;22.77;;;24.60;99.90;;;;;;5066242;28;20078;-62
2023/09/28 10:06:17;;;;;;;34.42;21.58;;;24.40;99.90;;;;;;5068147;28;20049;-61
2023/09/28 10:08:45;;;;;;;36.67;21.38;;;24.60;99.90;;;;;;5061771;28;20040;-61
2023/09/28 10:11:12;;;;;;;31.73;19.73;;;24.60;99.90;;;;;;5060644;28;20044;-63
2023/09/28 10:13:38;;;;;;;36.20;22.10;;;24.50;99.90;;;;;;5060088;28;20044;-61
2023/09/28 10:16:05;;;;;;;37.80;21.05;;;24.70;99.90;;;;;;5064731;28;20051;-61
2023/09/28 10:18:33;;;;;;;36.47;22.23;;;24.50;99.90;;;;;;5057755;28;20059;-63
2023/09/28 10:21:02;;;;;;;35.50;20.05;;;24.60;99.90;;;;;;5063217;28;20044;-64
2023/09/28 10:23:29;;;;;;;28.45;20.38;;;24.40;99.90;;;;;;5062267;28;20076;-61
2023/09/28 10:26:13;;;;;;;30.45;20.13;;;24.20;99.90;;;;;;5065118;28;20468;-62
2023/09/28 10:29:04;;;;;;;35.58;22.60;;;24.40;99.90;;;;;;5064671;28;20049;-61
2023/09/28 10:31:31;;;;;;;33.50;19.83;;;24.50;99.90;;;;;;5059592;28;20036;-62
2023/09/28 10:34:02;;;;;;;28.95;20.67;;;24.50;99.90;;;;;;5064005;28;20102;-62
2023/09/28 10:36:30;;;;;;;33.72;20.20;;;24.60;99.90;;;;;;5055766;28;20468;-61
2023/09/28 10:39:15;;;;;;;30.33;20.10;;;24.60;90.10;;;;;;5058590;28;20371;-62
2023/09/28 10:41:49;;;;;;;32.70;17.75;;;24.40;1.00;;;;;;5065839;28;20441;-61
2023/09/28 10:44:18;;;;;;;27.85;17.77;;;24.70;1.00;;;;;;5065052;28;20536;-62
2023/09/28 10:46:47;;;;;;;35.67;18.75;;;24.40;99.90;;;;;;5062004;28;20123;-64
2023/09/28 10:49:23;;;;;;;30.23;15.77;;;24.40;1.00;;;;;;5062155;28;20131;-61
2023/09/28 10:51:51;;;;;;;28.02;17.67;;;24.40;99.90;;;;;;5062517;28;20384;-62
2023/09/28 10:54:17;;;;;;;31.95;19.17;;;24.40;99.90;;;;;;5057187;28;20063;-62
2023/09/28 10:56:42;;;;;;;33.10;19.40;;;24.60;89.00;;;;;;5061859;28;20052;-62
2023/09/28 10:59:11;;;;;;;31.17;21.75;;;24.70;16.70;;;;;;5054138;28;20045;-61
2023/09/28 11:01:40;;;;;;;33.35;20.23;;;24.50;1.00;;;;;;5062234;28;20063;-62
2023/09/28 11:04:06;;;;;;;37.65;20.40;;;24.70;89.10;;;;;;5058572;28;20048;-61
2023/09/28 11:06:33;;;;;;;30.67;17.73;;;24.50;1.00;;;;;;5062018;28;20044;-62
2023/09/28 11:09:04;;;;;;;31.50;19.30;;;24.60;1.00;;;;;;5061897;28;20052;-61
2023/09/28 11:11:30;;;;;;;33.55;20.20;;;24.60;99.90;;;;;;5058714;28;20418;-63
2023/09/28 11:13:58;;;;;;;28.10;17.58;;;24.70;99.90;;;;;;5062502;28;20052;-63
2023/09/28 11:16:25;;;;;;;30.40;19.35;;;24.60;48.50;;;;;;5056187;28;20032;-62
2023/09/28 11:18:52;;;;;;;32.05;20.05;;;24.50;21.70;;;;;;5060240;28;20049;-63
2023/09/28 11:21:18;;;;;;;31.70;18.00;;;24.60;16.20;;;;;;5061637;28;20045;-63
2023/09/28 11:23:45;;;;;;;33.95;19.50;;;24.50;99.90;;;;;;5061766;28;20044;-63
2023/09/28 11:26:11;;;;;;;34.33;22.17;;;24.90;99.90;;;;;;5056359;28;20118;-63
2023/09/28 11:28:38;;;;;;;31.00;19.92;;;24.50;99.90;;;;;;5053565;28;20037;-62
2023/09/28 11:31:07;;;;;;;37.40;22.92;;;24.70;1.00;;;;;;5053138;28;20044;-63
2023/09/28 11:33:33;;;;;;;33.97;22.33;;;24.70;93.60;;;;;;5059210;28;20123;-64
2023/09/28 11:35:59;;;;;;;34.03;20.17;;;24.70;99.90;;;;;;5057637;28;20033;-63
2023/09/28 11:38:25;;;;;;;32.88;20.35;;;24.80;99.90;;;;;;5061728;28;20055;-63
2023/09/28 11:40:55;;;;;;;31.48;18.13;;;25.00;99.90;;;;;;5063917;28;20048;-63
2023/09/28 11:43:20;;;;;;;30.60;18.85;;;24.90;8.10;;;;;;5061467;28;20113;-62
2023/09/28 11:45:48;;;;;;;30.50;18.02;;;24.80;99.90;;;;;;5053730;28;20115;-63
2023/09/28 11:48:24;;;;;;;29.40;16.80;;;24.80;99.90;;;;;;5058583;28;20041;-63
2023/09/28 11:50:50;;;;;;;30.10;19.75;;;24.80;1.00;;;;;;5060587;28;20041;-63
2023/09/28 11:53:16;;;;;;;34.58;20.30;;;24.60;99.90;;;;;;5063931;28;20047;-62
2023/09/28 11:55:45;;;;;;;27.70;19.65;;;24.70;99.90;;;;;;5062328;28;20098;-63
2023/09/28 11:58:11;;;;;;;26.48;15.30;;;24.90;1.00;;;;;;5060175;28;20056;-62
2023/09/28 12:00:37;;;;;;;34.97;20.65;;;24.90;99.90;;;;;;5060799;28;20048;-63
2023/09/28 12:03:04;;;;;;;27.92;20.10;;;24.80;99.90;;;;;;5063293;28;20037;-63
2023/09/28 12:05:31;;;;;;;35.38;23.25;;;24.90;99.90;;;;;;5058843;28;20226;-63
2023/09/28 12:07:58;;;;;;;28.92;19.77;;;25.10;1.00;;;;;;5054964;28;20037;-63
2023/09/28 12:10:23;;;;;;;33.75;22.55;;;25.00;99.90;;;;;;5063044;28;20418;-63
2023/09/28 12:12:49;;;;;;;30.38;20.48;;;25.00;99.90;;;;;;5057071;28;20036;-63
2023/09/28 12:15:16;;;;;;;32.78;20.25;;;25.10;99.90;;;;;;5060705;28;20588;-63
2023/09/28 12:17:42;;;;;;;34.42;19.00;;;25.10;20.70;;;;;;5059093;28;20040;-62
2023/09/28 12:20:09;;;;;;;27.65;19.70;;;24.90;99.90;;;;;;5055995;28;20541;-63
2023/09/28 12:22:36;;;;;;;39.63;20.88;;;25.00;99.10;;;;;;5057637;28;20107;-67
2023/09/28 12:25:04;;;;;;;33.47;22.58;;;25.00;1.00;;;;;;5057608;28;20036;-63
2023/09/28 12:27:30;;;;;;;32.30;23.90;;;25.00;23.70;;;;;;5055934;28;20052;-65
2023/09/28 12:29:56;;;;;;;35.90;21.83;;;25.00;99.90;;;;;;5062069;28;20052;-64